createdAt,value
2023-01-06T00:01:34.411Z,59.60
2023-01-06T00:04:04.377Z,59.60
2023-01-06T00:06:32.775Z,59.60
2023-01-06T00:09:02.359Z,59.60
2023-01-06T00:11:30.662Z,59.60
2023-01-06T00:13:59.435Z,59.50
2023-01-06T00:16:27.537Z,59.50
2023-01-06T00:18:56.842Z,59.40
2023-01-06T00:21:26.555Z,59.30
2023-01-06T00:23:54.724Z,59.30
2023-01-06T00:26:22.867Z,59.20
2023-01-06T00:28:54.398Z,59.20
2023-01-06T00:31:22.682Z,59.10
2023-01-06T00:33:50.750Z,59.00
2023-01-06T00:36:18.619Z,59.00
2023-01-06T00:38:49.990Z,59.00
2023-01-06T00:41:35.668Z,59.00
2023-01-06T00:44:03.861Z,59.10
2023-01-06T00:46:34.234Z,59.10
2023-01-06T00:49:05.867Z,59.10
2023-01-06T00:51:34.644Z,59.10
2023-01-06T00:54:04.178Z,59.10
2023-01-06T00:56:32.133Z,59.10
2023-01-06T00:59:00.028Z,59.00
2023-01-06T01:01:28.054Z,58.90
2023-01-06T01:03:56.061Z,58.90
2023-01-06T01:06:24.162Z,58.90
2023-01-06T01:08:55.582Z,58.80
2023-01-06T01:11:42.880Z,58.70
2023-01-06T01:14:11.307Z,58.60
2023-01-06T01:16:39.796Z,58.60
2023-01-06T01:19:08.510Z,58.50
2023-01-06T01:21:36.407Z,58.50
2023-01-06T01:24:04.370Z,58.40
2023-01-06T01:26:33.551Z,58.40
2023-01-06T01:29:01.696Z,58.30
2023-01-06T01:31:29.569Z,58.40
2023-01-06T01:33:57.575Z,58.30
2023-01-06T01:36:25.476Z,58.30
2023-01-06T01:38:53.375Z,58.40
2023-01-06T01:41:23.354Z,58.40
2023-01-06T01:43:54.685Z,58.50
2023-01-06T01:46:26.583Z,58.50
2023-01-06T01:48:58.014Z,58.40
2023-01-06T01:51:31.922Z,58.20
2023-01-06T01:54:03.660Z,58.20
2023-01-06T01:56:34.378Z,58.10
2023-01-06T01:59:06.225Z,58.00
2023-01-06T02:01:34.297Z,57.90
2023-01-06T02:04:03.543Z,57.80
2023-01-06T02:06:31.913Z,58.30
2023-01-06T02:09:03.997Z,57.70
2023-01-06T02:11:34.087Z,57.70
2023-01-06T02:14:13.185Z,57.50
2023-01-06T02:16:57.873Z,57.50
2023-01-06T02:20:01.024Z,57.40
2023-01-06T02:22:49.204Z,57.30
2023-01-06T02:25:42.226Z,57.30
2023-01-06T02:28:34.555Z,57.30
2023-01-06T02:31:44.840Z,57.30
2023-01-06T02:34:24.104Z,57.20
2023-01-06T02:36:59.976Z,57.20
2023-01-06T02:39:40.578Z,57.30
2023-01-06T02:42:18.242Z,57.20
2023-01-06T02:44:56.467Z,57.20
2023-01-06T02:47:33.505Z,57.10
2023-01-06T02:50:10.625Z,57.10
2023-01-06T02:52:46.037Z,57.10
2023-01-06T02:55:21.549Z,57.80
2023-01-06T02:57:53.522Z,57.80
2023-01-06T03:00:26.454Z,57.80
2023-01-06T03:02:59.732Z,57.90
2023-01-06T03:05:29.252Z,57.90
2023-01-06T03:08:00.696Z,57.90
2023-01-06T03:10:30.440Z,58.00
2023-01-06T03:13:03.908Z,58.00
2023-01-06T03:15:31.888Z,58.10
2023-01-06T03:18:01.175Z,58.10
2023-01-06T03:20:29.367Z,58.10
2023-01-06T03:22:57.287Z,58.20
2023-01-06T03:25:25.565Z,58.20
2023-01-06T03:27:53.425Z,58.10
2023-01-06T03:30:21.399Z,58.00
2023-01-06T03:32:57.472Z,57.90
2023-01-06T03:35:40.457Z,58.00
2023-01-06T03:38:17.177Z,57.90
2023-01-06T03:40:54.209Z,58.00
2023-01-06T03:43:27.011Z,58.00
2023-01-06T03:46:02.762Z,58.10
2023-01-06T03:48:46.164Z,58.10
2023-01-06T03:51:26.725Z,58.20
2023-01-06T03:54:01.805Z,58.10
2023-01-06T03:56:33.174Z,58.00
2023-01-06T03:59:05.489Z,58.00
2023-01-06T04:01:34.517Z,58.00
2023-01-06T04:04:03.391Z,57.90
2023-01-06T04:06:32.669Z,57.70
2023-01-06T04:09:00.588Z,57.70
2023-01-06T04:11:46.371Z,57.60
2023-01-06T04:14:14.189Z,57.50
2023-01-06T04:16:42.085Z,57.50
2023-01-06T04:19:09.924Z,57.50
2023-01-06T04:21:39.254Z,57.40
2023-01-06T04:24:07.780Z,57.40
2023-01-06T04:26:35.718Z,57.30
2023-01-06T04:29:03.903Z,57.30
2023-01-06T04:31:33.450Z,57.30
2023-01-06T04:34:03.233Z,57.30
2023-01-06T04:36:31.872Z,57.20
2023-01-06T04:39:01.725Z,57.30
2023-01-06T04:41:29.543Z,57.20
2023-01-06T04:43:58.220Z,57.20
2023-01-06T04:46:26.123Z,57.20
2023-01-06T04:48:53.946Z,57.10
2023-01-06T04:51:21.824Z,57.10
2023-01-06T04:53:49.695Z,57.10
2023-01-06T04:56:18.926Z,57.10
2023-01-06T04:58:46.817Z,57.10
2023-01-06T05:01:15.632Z,56.90
2023-01-06T05:03:43.644Z,56.80
2023-01-06T05:06:12.744Z,56.80
2023-01-06T05:08:42.482Z,56.70
2023-01-06T05:11:12.394Z,56.70
2023-01-06T05:13:42.007Z,56.80
2023-01-06T05:16:11.182Z,56.80
2023-01-06T05:18:39.216Z,56.70
2023-01-06T05:21:07.326Z,56.70
2023-01-06T05:23:35.395Z,56.70
2023-01-06T05:26:03.283Z,56.70
2023-01-06T05:28:32.164Z,56.80
2023-01-06T05:31:02.114Z,56.80
2023-01-06T05:33:30.210Z,56.90
2023-01-06T05:36:01.568Z,56.90
2023-01-06T05:38:29.415Z,56.90
2023-01-06T05:40:57.777Z,56.90
2023-01-06T05:43:26.537Z,56.80
2023-01-06T05:45:54.745Z,56.80
2023-01-06T05:48:26.188Z,56.70
2023-01-06T05:50:54.102Z,56.70
2023-01-06T05:53:21.963Z,56.60
2023-01-06T05:55:49.844Z,56.60
2023-01-06T05:58:17.733Z,56.60
2023-01-06T06:00:45.607Z,56.60
2023-01-06T06:03:13.482Z,56.60
2023-01-06T06:05:42.750Z,56.60
2023-01-06T06:08:10.578Z,56.60
2023-01-06T06:10:38.374Z,56.60
2023-01-06T06:13:06.259Z,56.50
2023-01-06T06:15:34.180Z,56.50
2023-01-06T06:18:03.002Z,56.50
2023-01-06T06:20:30.865Z,56.40
2023-01-06T06:23:00.126Z,56.30
2023-01-06T06:25:29.343Z,56.30
2023-01-06T06:28:00.874Z,56.20
2023-01-06T06:30:28.853Z,56.20
2023-01-06T06:32:56.758Z,56.20
2023-01-06T06:35:24.619Z,56.20
2023-01-06T06:37:54.743Z,56.10
2023-01-06T06:40:24.004Z,56.10
2023-01-06T06:42:53.161Z,56.10
2023-01-06T06:45:21.048Z,56.00
2023-01-06T06:47:48.967Z,56.00
2023-01-06T06:50:17.052Z,56.10
2023-01-06T06:52:44.893Z,56.10
2023-01-06T06:55:12.706Z,56.20
2023-01-06T06:57:41.912Z,56.30
2023-01-06T07:00:11.473Z,56.40
2023-01-06T07:02:39.294Z,56.40
2023-01-06T07:05:07.480Z,56.50
2023-01-06T07:07:35.353Z,56.50
2023-01-06T07:10:03.263Z,56.50
2023-01-06T07:12:31.135Z,56.60
2023-01-06T07:15:00.310Z,56.70
2023-01-06T07:17:28.690Z,56.70
2023-01-06T07:19:56.636Z,56.90
2023-01-06T07:22:24.529Z,57.00
2023-01-06T07:24:52.353Z,57.00
2023-01-06T07:27:20.277Z,57.10
2023-01-06T07:29:48.199Z,57.30
2023-01-06T07:32:17.376Z,57.40
2023-01-06T07:34:45.537Z,57.50
2023-01-06T07:37:13.438Z,57.60
2023-01-06T07:39:41.277Z,57.70
2023-01-06T07:42:09.898Z,57.80
2023-01-06T07:44:37.892Z,58.00
2023-01-06T07:47:06.549Z,58.00
2023-01-06T07:49:35.769Z,58.00
2023-01-06T07:52:03.696Z,58.20
2023-01-06T07:54:31.795Z,58.20
2023-01-06T07:56:59.678Z,58.30
2023-01-06T07:59:27.588Z,58.40
2023-01-06T08:01:55.704Z,58.70
2023-01-06T08:04:23.646Z,58.90
2023-01-06T08:06:52.854Z,59.60
2023-01-06T08:09:20.717Z,60.50
2023-01-06T08:11:48.594Z,61.50
2023-01-06T08:14:16.533Z,62.20
2023-01-06T08:16:44.465Z,62.60
2023-01-06T08:19:12.319Z,62.70
2023-01-06T08:21:40.197Z,61.40
2023-01-06T08:24:09.881Z,61.10
2023-01-06T08:26:37.814Z,60.70
2023-01-06T08:29:05.727Z,60.20
2023-01-06T08:31:33.828Z,59.90
2023-01-06T08:34:01.838Z,59.70
2023-01-06T08:36:29.825Z,59.50
2023-01-06T08:38:57.648Z,59.50
2023-01-06T08:41:26.944Z,59.40
2023-01-06T08:43:56.514Z,59.50
2023-01-06T08:46:26.336Z,59.70
2023-01-06T08:48:54.243Z,60.00
2023-01-06T08:51:23.625Z,60.50
2023-01-06T08:53:51.525Z,61.10
2023-01-06T08:56:21.641Z,61.30
2023-01-06T08:58:53.988Z,61.30
2023-01-06T09:01:23.820Z,60.90
2023-01-06T09:03:51.746Z,60.60
2023-01-06T09:06:20.297Z,60.20
2023-01-06T09:08:49.401Z,59.80
2023-01-06T09:11:18.215Z,59.60
2023-01-06T09:13:46.555Z,59.40
2023-01-06T09:16:15.942Z,59.20
2023-01-06T09:18:49.775Z,59.00
2023-01-06T09:21:18.836Z,59.00
2023-01-06T09:23:46.963Z,58.90
2023-01-06T09:26:15.279Z,59.00
2023-01-06T09:28:43.283Z,59.40
2023-01-06T09:31:11.896Z,59.70
2023-01-06T09:33:41.532Z,59.60
2023-01-06T09:36:09.658Z,59.50
2023-01-06T09:38:37.595Z,59.50
2023-01-06T09:41:26.186Z,59.50
2023-01-06T09:44:07.003Z,59.50
2023-01-06T09:46:38.183Z,59.70
2023-01-06T09:49:15.003Z,59.80
2023-01-06T09:51:44.920Z,60.00
2023-01-06T09:54:18.049Z,60.20
2023-01-06T09:56:52.474Z,61.10
2023-01-06T09:59:26.470Z,60.50
2023-01-06T10:01:55.770Z,60.60
2023-01-06T10:04:27.472Z,60.80
2023-01-06T10:07:06.146Z,60.80
